sensor_id;sensor_type;location;lat;lon;timestamp;P1;durP1;ratioP1;P2;durP2;ratioP2
33268;SDS011;19640;50.944;5.260;2023-10-08T00:00:49;6.40;;;3.65;;
33268;SDS011;19640;50.944;5.260;2023-10-08T00:03:15;4.35;;;3.13;;
33268;SDS011;19640;50.944;5.260;2023-10-08T00:05:42;5.05;;;3.38;;
33268;SDS011;19640;50.944;5.260;2023-10-08T00:08:08;8.02;;;3.28;;
33268;SDS011;19640;50.944;5.260;2023-10-08T00:10:35;5.38;;;2.88;;
33268;SDS011;19640;50.944;5.260;2023-10-08T00:13:02;6.43;;;2.60;;
33268;SDS011;19640;50.944;5.260;2023-10-08T00:15:32;4.95;;;2.97;;
33268;SDS011;19640;50.944;5.260;2023-10-08T00:18:00;4.68;;;2.90;;
33268;SDS011;19640;50.944;5.260;2023-10-08T00:20:26;5.95;;;2.72;;
33268;SDS011;19640;50.944;5.260;2023-10-08T00:23:01;3.65;;;2.50;;
33268;SDS011;19640;50.944;5.260;2023-10-08T00:25:32;7.25;;;2.50;;
33268;SDS011;19640;50.944;5.260;2023-10-08T00:27:59;5.82;;;3.20;;
33268;SDS011;19640;50.944;5.260;2023-10-08T00:30:27;4.72;;;2.67;;
33268;SDS011;19640;50.944;5.260;2023-10-08T00:32:56;5.05;;;2.50;;
33268;SDS011;19640;50.944;5.260;2023-10-08T00:35:21;6.45;;;2.70;;
33268;SDS011;19640;50.944;5.260;2023-10-08T00:37:47;4.18;;;2.78;;
33268;SDS011;19640;50.944;5.260;2023-10-08T00:40:13;5.55;;;2.50;;
33268;SDS011;19640;50.944;5.260;2023-10-08T00:42:46;3.92;;;2.50;;
33268;SDS011;19640;50.944;5.260;2023-10-08T00:45:12;8.23;;;3.17;;
33268;SDS011;19640;50.944;5.260;2023-10-08T00:47:44;4.90;;;2.53;;
33268;SDS011;19640;50.944;5.260;2023-10-08T00:50:11;4.10;;;2.58;;
33268;SDS011;19640;50.944;5.260;2023-10-08T00:52:49;8.18;;;2.40;;
33268;SDS011;19640;50.944;5.260;2023-10-08T00:55:25;3.45;;;2.35;;
33268;SDS011;19640;50.944;5.260;2023-10-08T00:57:56;6.53;;;2.95;;
33268;SDS011;19640;50.944;5.260;2023-10-08T01:00:24;5.45;;;2.70;;
33268;SDS011;19640;50.944;5.260;2023-10-08T01:02:59;4.65;;;2.38;;
33268;SDS011;19640;50.944;5.260;2023-10-08T01:05:26;3.35;;;2.35;;
33268;SDS011;19640;50.944;5.260;2023-10-08T01:08:06;4.80;;;2.72;;
33268;SDS011;19640;50.944;5.260;2023-10-08T01:10:32;3.83;;;2.33;;
33268;SDS011;19640;50.944;5.260;2023-10-08T01:13:00;5.05;;;2.47;;
33268;SDS011;19640;50.944;5.260;2023-10-08T01:15:26;4.93;;;2.53;;
33268;SDS011;19640;50.944;5.260;2023-10-08T01:17:55;4.18;;;2.42;;
33268;SDS011;19640;50.944;5.260;2023-10-08T01:20:41;4.22;;;2.28;;
33268;SDS011;19640;50.944;5.260;2023-10-08T01:23:13;4.00;;;2.50;;
33268;SDS011;19640;50.944;5.260;2023-10-08T01:25:40;4.93;;;2.63;;
33268;SDS011;19640;50.944;5.260;2023-10-08T01:28:07;4.05;;;2.33;;
33268;SDS011;19640;50.944;5.260;2023-10-08T01:30:56;3.67;;;2.60;;
33268;SDS011;19640;50.944;5.260;2023-10-08T01:33:25;4.97;;;2.58;;
33268;SDS011;19640;50.944;5.260;2023-10-08T01:36:11;4.53;;;2.70;;
33268;SDS011;19640;50.944;5.260;2023-10-08T01:38:38;4.13;;;2.25;;
33268;SDS011;19640;50.944;5.260;2023-10-08T01:41:06;3.58;;;2.38;;
33268;SDS011;19640;50.944;5.260;2023-10-08T01:43:44;3.85;;;2.70;;
33268;SDS011;19640;50.944;5.260;2023-10-08T01:46:10;3.38;;;2.40;;
33268;SDS011;19640;50.944;5.260;2023-10-08T01:48:37;4.32;;;2.83;;
33268;SDS011;19640;50.944;5.260;2023-10-08T01:51:04;3.47;;;2.33;;
33268;SDS011;19640;50.944;5.260;2023-10-08T01:53:37;5.10;;;2.97;;
33268;SDS011;19640;50.944;5.260;2023-10-08T01:56:03;5.05;;;2.83;;
33268;SDS011;19640;50.944;5.260;2023-10-08T01:58:30;5.22;;;2.60;;
33268;SDS011;19640;50.944;5.260;2023-10-08T02:00:55;6.70;;;2.53;;
33268;SDS011;19640;50.944;5.260;2023-10-08T02:03:25;3.63;;;2.50;;
33268;SDS011;19640;50.944;5.260;2023-10-08T02:05:52;4.38;;;2.22;;
33268;SDS011;19640;50.944;5.260;2023-10-08T02:08:19;2.72;;;2.03;;
33268;SDS011;19640;50.944;5.260;2023-10-08T02:10:45;4.57;;;2.38;;
33268;SDS011;19640;50.944;5.260;2023-10-08T02:13:13;4.85;;;3.08;;
33268;SDS011;19640;50.944;5.260;2023-10-08T02:15:42;5.30;;;2.67;;
33268;SDS011;19640;50.944;5.260;2023-10-08T02:18:10;6.22;;;2.47;;
33268;SDS011;19640;50.944;5.260;2023-10-08T02:20:36;5.38;;;2.53;;
33268;SDS011;19640;50.944;5.260;2023-10-08T02:23:02;11.23;;;2.60;;
33268;SDS011;19640;50.944;5.260;2023-10-08T02:25:30;5.03;;;2.47;;
33268;SDS011;19640;50.944;5.260;2023-10-08T02:27:56;3.83;;;2.13;;
33268;SDS011;19640;50.944;5.260;2023-10-08T02:30:22;3.92;;;2.50;;
33268;SDS011;19640;50.944;5.260;2023-10-08T02:32:48;4.55;;;2.67;;
33268;SDS011;19640;50.944;5.260;2023-10-08T02:35:14;4.38;;;2.15;;
33268;SDS011;19640;50.944;5.260;2023-10-08T02:37:40;6.57;;;2.83;;
33268;SDS011;19640;50.944;5.260;2023-10-08T02:40:09;8.00;;;2.60;;
33268;SDS011;19640;50.944;5.260;2023-10-08T02:42:56;5.13;;;2.55;;
33268;SDS011;19640;50.944;5.260;2023-10-08T02:45:26;5.78;;;2.70;;
33268;SDS011;19640;50.944;5.260;2023-10-08T02:47:53;5.75;;;2.80;;
33268;SDS011;19640;50.944;5.260;2023-10-08T02:50:19;3.78;;;2.80;;
33268;SDS011;19640;50.944;5.260;2023-10-08T02:52:47;3.42;;;2.50;;
33268;SDS011;19640;50.944;5.260;2023-10-08T02:55:18;3.97;;;2.10;;
33268;SDS011;19640;50.944;5.260;2023-10-08T02:57:53;4.28;;;2.72;;
33268;SDS011;19640;50.944;5.260;2023-10-08T03:00:21;4.25;;;1.92;;
33268;SDS011;19640;50.944;5.260;2023-10-08T03:02:46;7.22;;;2.63;;
33268;SDS011;19640;50.944;5.260;2023-10-08T03:05:12;6.15;;;3.08;;
33268;SDS011;19640;50.944;5.260;2023-10-08T03:07:41;3.40;;;2.17;;
33268;SDS011;19640;50.944;5.260;2023-10-08T03:10:07;4.15;;;2.40;;
33268;SDS011;19640;50.944;5.260;2023-10-08T03:12:42;4.85;;;2.35;;
33268;SDS011;19640;50.944;5.260;2023-10-08T03:15:11;4.00;;;2.60;;
33268;SDS011;19640;50.944;5.260;2023-10-08T03:17:42;3.97;;;2.60;;
33268;SDS011;19640;50.944;5.260;2023-10-08T03:20:17;6.40;;;2.28;;
33268;SDS011;19640;50.944;5.260;2023-10-08T03:23:04;6.40;;;2.35;;
33268;SDS011;19640;50.944;5.260;2023-10-08T03:25:37;5.95;;;2.67;;
33268;SDS011;19640;50.944;5.260;2023-10-08T03:28:07;3.58;;;2.08;;
33268;SDS011;19640;50.944;5.260;2023-10-08T03:30:34;4.15;;;2.70;;
33268;SDS011;19640;50.944;5.260;2023-10-08T03:33:15;5.90;;;2.22;;
33268;SDS011;19640;50.944;5.260;2023-10-08T03:35:48;4.60;;;2.40;;
33268;SDS011;19640;50.944;5.260;2023-10-08T03:38:18;6.15;;;2.28;;
33268;SDS011;19640;50.944;5.260;2023-10-08T03:41:09;4.63;;;2.47;;
33268;SDS011;19640;50.944;5.260;2023-10-08T03:43:41;2.60;;;1.98;;
33268;SDS011;19640;50.944;5.260;2023-10-08T03:46:21;3.58;;;2.40;;
33268;SDS011;19640;50.944;5.260;2023-10-08T03:48:49;5.18;;;2.63;;
33268;SDS011;19640;50.944;5.260;2023-10-08T03:53:48;8.40;;;2.75;;
33268;SDS011;19640;50.944;5.260;2023-10-08T03:56:44;3.65;;;2.20;;
33268;SDS011;19640;50.944;5.260;2023-10-08T03:59:17;4.78;;;2.35;;
33268;SDS011;19640;50.944;5.260;2023-10-08T04:01:46;8.05;;;2.40;;
33268;SDS011;19640;50.944;5.260;2023-10-08T04:04:19;3.85;;;2.58;;
33268;SDS011;19640;50.944;5.260;2023-10-08T04:06:47;9.70;;;2.78;;
33268;SDS011;19640;50.944;5.260;2023-10-08T04:09:17;4.03;;;2.80;;
33268;SDS011;19640;50.944;5.260;2023-10-08T04:11:43;7.03;;;2.80;;
33268;SDS011;19640;50.944;5.260;2023-10-08T04:14:12;4.10;;;2.42;;
33268;SDS011;19640;50.944;5.260;2023-10-08T04:16:41;5.05;;;2.60;;
33268;SDS011;19640;50.944;5.260;2023-10-08T04:19:07;6.20;;;2.88;;
33268;SDS011;19640;50.944;5.260;2023-10-08T04:21:34;5.35;;;3.10;;
33268;SDS011;19640;50.944;5.260;2023-10-08T04:24:00;4.53;;;2.60;;
33268;SDS011;19640;50.944;5.260;2023-10-08T04:26:28;3.55;;;2.03;;
33268;SDS011;19640;50.944;5.260;2023-10-08T04:28:57;8.15;;;2.63;;
33268;SDS011;19640;50.944;5.260;2023-10-08T04:31:27;3.83;;;1.98;;
33268;SDS011;19640;50.944;5.260;2023-10-08T04:34:05;5.47;;;2.00;;
33268;SDS011;19640;50.944;5.260;2023-10-08T04:36:40;6.35;;;2.17;;
33268;SDS011;19640;50.944;5.260;2023-10-08T04:39:14;5.25;;;2.63;;
33268;SDS011;19640;50.944;5.260;2023-10-08T04:41:48;4.97;;;2.05;;
33268;SDS011;19640;50.944;5.260;2023-10-08T04:44:19;7.33;;;2.17;;
33268;SDS011;19640;50.944;5.260;2023-10-08T04:46:47;4.28;;;2.40;;
33268;SDS011;19640;50.944;5.260;2023-10-08T04:49:17;5.32;;;2.55;;
33268;SDS011;19640;50.944;5.260;2023-10-08T04:51:57;4.10;;;2.13;;
33268;SDS011;19640;50.944;5.260;2023-10-08T04:54:24;3.45;;;2.05;;
33268;SDS011;19640;50.944;5.260;2023-10-08T04:56:57;3.80;;;2.38;;
33268;SDS011;19640;50.944;5.260;2023-10-08T04:59:24;3.30;;;2.38;;
33268;SDS011;19640;50.944;5.260;2023-10-08T05:01:57;4.70;;;2.65;;
33268;SDS011;19640;50.944;5.260;2023-10-08T05:04:43;4.72;;;2.40;;
33268;SDS011;19640;50.944;5.260;2023-10-08T05:07:18;4.63;;;2.42;;
33268;SDS011;19640;50.944;5.260;2023-10-08T05:10:03;3.92;;;2.00;;
33268;SDS011;19640;50.944;5.260;2023-10-08T05:12:29;3.58;;;2.22;;
33268;SDS011;19640;50.944;5.260;2023-10-08T05:14:57;5.35;;;2.30;;
33268;SDS011;19640;50.944;5.260;2023-10-08T05:17:44;5.20;;;2.60;;
33268;SDS011;19640;50.944;5.260;2023-10-08T05:20:17;4.35;;;2.08;;
33268;SDS011;19640;50.944;5.260;2023-10-08T05:23:06;7.22;;;2.72;;
33268;SDS011;19640;50.944;5.260;2023-10-08T05:28:30;4.40;;;2.45;;
33268;SDS011;19640;50.944;5.260;2023-10-08T05:31:06;6.05;;;2.92;;
33268;SDS011;19640;50.944;5.260;2023-10-08T05:33:39;4.80;;;2.33;;
33268;SDS011;19640;50.944;5.260;2023-10-08T05:36:23;12.50;;;1.95;;
33268;SDS011;19640;50.944;5.260;2023-10-08T05:39:16;6.97;;;2.05;;
33268;SDS011;19640;50.944;5.260;2023-10-08T05:42:00;7.38;;;2.53;;
33268;SDS011;19640;50.944;5.260;2023-10-08T05:44:44;3.75;;;2.10;;
33268;SDS011;19640;50.944;5.260;2023-10-08T05:47:15;3.63;;;2.33;;
33268;SDS011;19640;50.944;5.260;2023-10-08T05:49:53;9.45;;;2.35;;
33268;SDS011;19640;50.944;5.260;2023-10-08T05:52:39;5.40;;;2.30;;
33268;SDS011;19640;50.944;5.260;2023-10-08T05:55:22;10.10;;;2.45;;
33268;SDS011;19640;50.944;5.260;2023-10-08T05:57:52;3.80;;;2.05;;
33268;SDS011;19640;50.944;5.260;2023-10-08T06:00:38;2.88;;;1.60;;
33268;SDS011;19640;50.944;5.260;2023-10-08T06:03:16;4.50;;;2.40;;
33268;SDS011;19640;50.944;5.260;2023-10-08T06:08:37;3.60;;;2.30;;
33268;SDS011;19640;50.944;5.260;2023-10-08T06:11:15;3.53;;;1.83;;
33268;SDS011;19640;50.944;5.260;2023-10-08T06:14:06;2.88;;;1.55;;
33268;SDS011;19640;50.944;5.260;2023-10-08T06:16:42;7.47;;;2.75;;
33268;SDS011;19640;50.944;5.260;2023-10-08T06:19:15;3.03;;;1.90;;
33268;SDS011;19640;50.944;5.260;2023-10-08T06:21:41;4.20;;;2.45;;
33268;SDS011;19640;50.944;5.260;2023-10-08T06:24:08;3.13;;;1.98;;
33268;SDS011;19640;50.944;5.260;2023-10-08T06:26:38;5.65;;;2.05;;
33268;SDS011;19640;50.944;5.260;2023-10-08T06:29:10;4.93;;;2.08;;
33268;SDS011;19640;50.944;5.260;2023-10-08T06:31:55;3.55;;;2.20;;
33268;SDS011;19640;50.944;5.260;2023-10-08T06:34:22;5.57;;;2.63;;
33268;SDS011;19640;50.944;5.260;2023-10-08T06:36:52;4.77;;;2.70;;
33268;SDS011;19640;50.944;5.260;2023-10-08T06:39:22;4.63;;;2.38;;
33268;SDS011;19640;50.944;5.260;2023-10-08T06:41:58;7.07;;;2.90;;
33268;SDS011;19640;50.944;5.260;2023-10-08T06:44:25;3.08;;;2.60;;
33268;SDS011;19640;50.944;5.260;2023-10-08T06:46:52;3.97;;;2.20;;
33268;SDS011;19640;50.944;5.260;2023-10-08T06:49:20;4.68;;;2.03;;
33268;SDS011;19640;50.944;5.260;2023-10-08T06:51:49;3.40;;;2.05;;
33268;SDS011;19640;50.944;5.260;2023-10-08T06:54:17;6.38;;;2.17;;
33268;SDS011;19640;50.944;5.260;2023-10-08T06:56:43;6.20;;;2.67;;
33268;SDS011;19640;50.944;5.260;2023-10-08T07:01:49;4.47;;;2.40;;
33268;SDS011;19640;50.944;5.260;2023-10-08T07:04:16;5.50;;;2.47;;
33268;SDS011;19640;50.944;5.260;2023-10-08T07:06:46;6.10;;;2.47;;
33268;SDS011;19640;50.944;5.260;2023-10-08T07:09:12;6.63;;;2.13;;
33268;SDS011;19640;50.944;5.260;2023-10-08T07:11:50;5.15;;;2.78;;
33268;SDS011;19640;50.944;5.260;2023-10-08T07:14:20;4.18;;;2.70;;
33268;SDS011;19640;50.944;5.260;2023-10-08T07:16:47;4.13;;;2.30;;
33268;SDS011;19640;50.944;5.260;2023-10-08T07:24:24;5.93;;;2.55;;
33268;SDS011;19640;50.944;5.260;2023-10-08T07:26:50;2.85;;;2.25;;
33268;SDS011;19640;50.944;5.260;2023-10-08T07:29:20;3.83;;;2.70;;
33268;SDS011;19640;50.944;5.260;2023-10-08T07:31:47;5.88;;;2.72;;
33268;SDS011;19640;50.944;5.260;2023-10-08T07:36:49;4.32;;;2.83;;
33268;SDS011;19640;50.944;5.260;2023-10-08T07:39:21;4.82;;;2.58;;
33268;SDS011;19640;50.944;5.260;2023-10-08T07:41:52;11.00;;;2.53;;
33268;SDS011;19640;50.944;5.260;2023-10-08T07:44:22;5.30;;;3.05;;
33268;SDS011;19640;50.944;5.260;2023-10-08T07:46:51;5.18;;;2.75;;
33268;SDS011;19640;50.944;5.260;2023-10-08T07:49:19;4.53;;;2.83;;
33268;SDS011;19640;50.944;5.260;2023-10-08T07:51:45;6.30;;;2.95;;
33268;SDS011;19640;50.944;5.260;2023-10-08T07:54:22;5.88;;;2.90;;
33268;SDS011;19640;50.944;5.260;2023-10-08T07:56:49;4.07;;;2.40;;
33268;SDS011;19640;50.944;5.260;2023-10-08T07:59:24;4.55;;;3.00;;
33268;SDS011;19640;50.944;5.260;2023-10-08T08:01:50;4.07;;;2.65;;
33268;SDS011;19640;50.944;5.260;2023-10-08T08:04:19;5.30;;;3.50;;
33268;SDS011;19640;50.944;5.260;2023-10-08T08:06:48;5.88;;;2.95;;
33268;SDS011;19640;50.944;5.260;2023-10-08T08:09:16;9.05;;;3.10;;
33268;SDS011;19640;50.944;5.260;2023-10-08T08:11:45;5.47;;;3.15;;
33268;SDS011;19640;50.944;5.260;2023-10-08T08:14:12;5.03;;;3.30;;
33268;SDS011;19640;50.944;5.260;2023-10-08T08:16:42;4.60;;;3.00;;
33268;SDS011;19640;50.944;5.260;2023-10-08T08:19:11;9.27;;;3.35;;
33268;SDS011;19640;50.944;5.260;2023-10-08T08:21:38;6.50;;;3.45;;
33268;SDS011;19640;50.944;5.260;2023-10-08T08:24:10;5.60;;;2.60;;
33268;SDS011;19640;50.944;5.260;2023-10-08T08:26:38;6.78;;;3.45;;
33268;SDS011;19640;50.944;5.260;2023-10-08T08:29:07;6.43;;;3.63;;
33268;SDS011;19640;50.944;5.260;2023-10-08T08:31:34;4.53;;;3.15;;
33268;SDS011;19640;50.944;5.260;2023-10-08T08:34:06;5.85;;;3.30;;
33268;SDS011;19640;50.944;5.260;2023-10-08T08:36:39;7.90;;;3.33;;
33268;SDS011;19640;50.944;5.260;2023-10-08T08:39:12;6.68;;;3.25;;
33268;SDS011;19640;50.944;5.260;2023-10-08T08:44:49;7.22;;;3.22;;
33268;SDS011;19640;50.944;5.260;2023-10-08T08:47:18;6.00;;;3.75;;
33268;SDS011;19640;50.944;5.260;2023-10-08T08:49:47;19.90;;;3.90;;
33268;SDS011;19640;50.944;5.260;2023-10-08T08:52:13;7.68;;;3.38;;
33268;SDS011;19640;50.944;5.260;2023-10-08T08:54:40;7.53;;;4.00;;
33268;SDS011;19640;50.944;5.260;2023-10-08T08:57:09;5.20;;;3.50;;
33268;SDS011;19640;50.944;5.260;2023-10-08T08:59:44;7.45;;;4.03;;
33268;SDS011;19640;50.944;5.260;2023-10-08T09:02:21;9.60;;;3.65;;
33268;SDS011;19640;50.944;5.260;2023-10-08T09:04:48;7.15;;;3.97;;
33268;SDS011;19640;50.944;5.260;2023-10-08T09:07:14;5.35;;;3.72;;
33268;SDS011;19640;50.944;5.260;2023-10-08T09:09:40;6.10;;;3.47;;
33268;SDS011;19640;50.944;5.260;2023-10-08T09:12:06;6.53;;;4.07;;
33268;SDS011;19640;50.944;5.260;2023-10-08T09:14:35;6.35;;;3.95;;
33268;SDS011;19640;50.944;5.260;2023-10-08T09:17:02;7.65;;;4.07;;
33268;SDS011;19640;50.944;5.260;2023-10-08T09:19:30;6.20;;;3.70;;
33268;SDS011;19640;50.944;5.260;2023-10-08T09:22:07;6.38;;;3.45;;
33268;SDS011;19640;50.944;5.260;2023-10-08T09:24:35;7.70;;;3.97;;
33268;SDS011;19640;50.944;5.260;2023-10-08T09:27:05;12.82;;;4.88;;
33268;SDS011;19640;50.944;5.260;2023-10-08T09:29:34;10.27;;;4.38;;
33268;SDS011;19640;50.944;5.260;2023-10-08T09:32:14;8.20;;;3.70;;
33268;SDS011;19640;50.944;5.260;2023-10-08T09:34:48;9.60;;;4.68;;
33268;SDS011;19640;50.944;5.260;2023-10-08T09:37:16;9.00;;;4.05;;
33268;SDS011;19640;50.944;5.260;2023-10-08T09:39:46;12.10;;;4.85;;
33268;SDS011;19640;50.944;5.260;2023-10-08T09:42:20;8.13;;;4.55;;
33268;SDS011;19640;50.944;5.260;2023-10-08T09:44:47;6.65;;;3.97;;
33268;SDS011;19640;50.944;5.260;2023-10-08T09:47:15;8.98;;;4.40;;
33268;SDS011;19640;50.944;5.260;2023-10-08T09:50:00;6.65;;;4.00;;
33268;SDS011;19640;50.944;5.260;2023-10-08T09:52:43;9.70;;;4.50;;
33268;SDS011;19640;50.944;5.260;2023-10-08T09:55:31;5.88;;;3.75;;
33268;SDS011;19640;50.944;5.260;2023-10-08T09:57:57;8.93;;;4.80;;
33268;SDS011;19640;50.944;5.260;2023-10-08T10:00:23;10.30;;;5.38;;
33268;SDS011;19640;50.944;5.260;2023-10-08T10:03:00;12.70;;;4.93;;
33268;SDS011;19640;50.944;5.260;2023-10-08T10:05:35;9.55;;;4.80;;
33268;SDS011;19640;50.944;5.260;2023-10-08T10:08:02;9.23;;;4.90;;
33268;SDS011;19640;50.944;5.260;2023-10-08T10:10:37;8.98;;;4.10;;
33268;SDS011;19640;50.944;5.260;2023-10-08T10:13:04;8.82;;;4.72;;
33268;SDS011;19640;50.944;5.260;2023-10-08T10:15:33;9.45;;;4.72;;
33268;SDS011;19640;50.944;5.260;2023-10-08T10:18:14;11.82;;;5.28;;
33268;SDS011;19640;50.944;5.260;2023-10-08T10:20:46;9.25;;;5.13;;
33268;SDS011;19640;50.944;5.260;2023-10-08T10:23:43;9.40;;;5.40;;
33268;SDS011;19640;50.944;5.260;2023-10-08T10:26:28;11.00;;;4.50;;
33268;SDS011;19640;50.944;5.260;2023-10-08T10:31:41;8.25;;;4.68;;
33268;SDS011;19640;50.944;5.260;2023-10-08T10:34:15;11.93;;;4.72;;
33268;SDS011;19640;50.944;5.260;2023-10-08T10:36:46;8.50;;;4.18;;
33268;SDS011;19640;50.944;5.260;2023-10-08T10:39:22;10.68;;;4.70;;
33268;SDS011;19640;50.944;5.260;2023-10-08T10:41:53;8.02;;;5.55;;
33268;SDS011;19640;50.944;5.260;2023-10-08T10:44:26;14.52;;;5.10;;
33268;SDS011;19640;50.944;5.260;2023-10-08T10:46:54;10.55;;;5.03;;
33268;SDS011;19640;50.944;5.260;2023-10-08T10:49:42;13.43;;;4.72;;
33268;SDS011;19640;50.944;5.260;2023-10-08T10:52:23;12.77;;;5.60;;
33268;SDS011;19640;50.944;5.260;2023-10-08T10:55:04;8.27;;;4.78;;
33268;SDS011;19640;50.944;5.260;2023-10-08T10:57:55;10.55;;;4.93;;
33268;SDS011;19640;50.944;5.260;2023-10-08T11:03:01;9.85;;;3.95;;
33268;SDS011;19640;50.944;5.260;2023-10-08T11:05:29;14.70;;;4.57;;
33268;SDS011;19640;50.944;5.260;2023-10-08T11:07:56;10.82;;;4.90;;
33268;SDS011;19640;50.944;5.260;2023-10-08T11:10:32;9.98;;;4.85;;
33268;SDS011;19640;50.944;5.260;2023-10-08T11:12:59;10.88;;;4.93;;
33268;SDS011;19640;50.944;5.260;2023-10-08T11:15:28;8.65;;;4.45;;
33268;SDS011;19640;50.944;5.260;2023-10-08T11:18:11;10.88;;;4.45;;
33268;SDS011;19640;50.944;5.260;2023-10-08T11:20:40;10.68;;;4.60;;
33268;SDS011;19640;50.944;5.260;2023-10-08T11:26:02;12.05;;;4.97;;
33268;SDS011;19640;50.944;5.260;2023-10-08T11:28:30;8.27;;;4.93;;
33268;SDS011;19640;50.944;5.260;2023-10-08T11:31:01;8.68;;;4.60;;
33268;SDS011;19640;50.944;5.260;2023-10-08T11:33:40;7.50;;;4.25;;
33268;SDS011;19640;50.944;5.260;2023-10-08T11:36:06;10.98;;;5.05;;
33268;SDS011;19640;50.944;5.260;2023-10-08T11:38:45;6.55;;;3.63;;
33268;SDS011;19640;50.944;5.260;2023-10-08T11:41:17;9.18;;;5.18;;
33268;SDS011;19640;50.944;5.260;2023-10-08T11:43:52;11.77;;;4.63;;
33268;SDS011;19640;50.944;5.260;2023-10-08T11:46:26;8.75;;;4.28;;
33268;SDS011;19640;50.944;5.260;2023-10-08T11:49:04;14.55;;;5.22;;
33268;SDS011;19640;50.944;5.260;2023-10-08T11:51:34;23.52;;;5.20;;
33268;SDS011;19640;50.944;5.260;2023-10-08T11:54:01;10.73;;;4.78;;
33268;SDS011;19640;50.944;5.260;2023-10-08T11:56:30;10.30;;;5.38;;
33268;SDS011;19640;50.944;5.260;2023-10-08T11:59:01;9.70;;;4.80;;
33268;SDS011;19640;50.944;5.260;2023-10-08T12:01:30;9.00;;;5.20;;
33268;SDS011;19640;50.944;5.260;2023-10-08T12:04:00;10.75;;;4.60;;
33268;SDS011;19640;50.944;5.260;2023-10-08T12:06:26;7.57;;;4.72;;
33268;SDS011;19640;50.944;5.260;2023-10-08T12:08:57;10.65;;;3.85;;
33268;SDS011;19640;50.944;5.260;2023-10-08T12:11:36;14.57;;;4.88;;
33268;SDS011;19640;50.944;5.260;2023-10-08T12:14:03;10.52;;;4.30;;
33268;SDS011;19640;50.944;5.260;2023-10-08T12:16:28;9.10;;;4.75;;
33268;SDS011;19640;50.944;5.260;2023-10-08T12:19:00;11.50;;;4.53;;
33268;SDS011;19640;50.944;5.260;2023-10-08T12:21:29;8.15;;;4.15;;
33268;SDS011;19640;50.944;5.260;2023-10-08T12:23:57;11.32;;;5.00;;
33268;SDS011;19640;50.944;5.260;2023-10-08T12:26:24;10.00;;;4.75;;
33268;SDS011;19640;50.944;5.260;2023-10-08T12:28:49;9.27;;;4.30;;
33268;SDS011;19640;50.944;5.260;2023-10-08T12:31:16;15.13;;;5.32;;
33268;SDS011;19640;50.944;5.260;2023-10-08T12:33:47;9.55;;;4.63;;
33268;SDS011;19640;50.944;5.260;2023-10-08T12:36:14;8.32;;;4.45;;
33268;SDS011;19640;50.944;5.260;2023-10-08T12:38:44;7.15;;;3.97;;
33268;SDS011;19640;50.944;5.260;2023-10-08T12:41:12;10.38;;;4.57;;
33268;SDS011;19640;50.944;5.260;2023-10-08T12:43:39;6.47;;;3.28;;
33268;SDS011;19640;50.944;5.260;2023-10-08T12:46:11;6.50;;;3.45;;
33268;SDS011;19640;50.944;5.260;2023-10-08T12:48:47;10.38;;;4.22;;
33268;SDS011;19640;50.944;5.260;2023-10-08T12:51:17;9.18;;;4.05;;
33268;SDS011;19640;50.944;5.260;2023-10-08T12:53:43;9.63;;;4.70;;
33268;SDS011;19640;50.944;5.260;2023-10-08T12:56:16;12.93;;;4.28;;
33268;SDS011;19640;50.944;5.260;2023-10-08T12:58:46;11.25;;;4.28;;
33268;SDS011;19640;50.944;5.260;2023-10-08T13:01:14;10.45;;;3.78;;
33268;SDS011;19640;50.944;5.260;2023-10-08T13:03:43;10.40;;;3.70;;
33268;SDS011;19640;50.944;5.260;2023-10-08T13:06:18;13.05;;;4.00;;
33268;SDS011;19640;50.944;5.260;2023-10-08T13:08:50;11.32;;;3.53;;
33268;SDS011;19640;50.944;5.260;2023-10-08T13:11:18;14.13;;;3.65;;
33268;SDS011;19640;50.944;5.260;2023-10-08T13:13:48;9.02;;;3.30;;
33268;SDS011;19640;50.944;5.260;2023-10-08T13:16:18;7.18;;;3.67;;
33268;SDS011;19640;50.944;5.260;2023-10-08T13:18:46;6.50;;;3.50;;
33268;SDS011;19640;50.944;5.260;2023-10-08T13:21:12;7.43;;;3.70;;
33268;SDS011;19640;50.944;5.260;2023-10-08T13:23:38;9.13;;;3.28;;
33268;SDS011;19640;50.944;5.260;2023-10-08T13:26:05;7.95;;;3.97;;
33268;SDS011;19640;50.944;5.260;2023-10-08T13:28:33;8.73;;;3.40;;
33268;SDS011;19640;50.944;5.260;2023-10-08T13:31:00;9.43;;;3.88;;
33268;SDS011;19640;50.944;5.260;2023-10-08T13:33:35;6.82;;;3.45;;
33268;SDS011;19640;50.944;5.260;2023-10-08T13:36:08;9.50;;;3.67;;
33268;SDS011;19640;50.944;5.260;2023-10-08T13:38:35;8.32;;;3.85;;
33268;SDS011;19640;50.944;5.260;2023-10-08T13:41:02;7.45;;;3.78;;
33268;SDS011;19640;50.944;5.260;2023-10-08T13:43:31;9.00;;;4.03;;
33268;SDS011;19640;50.944;5.260;2023-10-08T13:48:32;8.00;;;3.60;;
33268;SDS011;19640;50.944;5.260;2023-10-08T13:51:04;9.90;;;3.47;;
33268;SDS011;19640;50.944;5.260;2023-10-08T13:53:31;9.35;;;3.08;;
33268;SDS011;19640;50.944;5.260;2023-10-08T13:55:58;7.60;;;3.42;;
33268;SDS011;19640;50.944;5.260;2023-10-08T13:58:35;6.68;;;3.40;;
33268;SDS011;19640;50.944;5.260;2023-10-08T14:01:05;6.22;;;3.30;;
33268;SDS011;19640;50.944;5.260;2023-10-08T14:03:44;8.82;;;3.88;;
33268;SDS011;19640;50.944;5.260;2023-10-08T14:06:10;9.77;;;3.13;;
33268;SDS011;19640;50.944;5.260;2023-10-08T14:08:36;8.13;;;3.08;;
33268;SDS011;19640;50.944;5.260;2023-10-08T14:11:04;9.07;;;3.28;;
33268;SDS011;19640;50.944;5.260;2023-10-08T14:13:31;6.22;;;3.28;;
33268;SDS011;19640;50.944;5.260;2023-10-08T14:15:58;5.78;;;3.05;;
33268;SDS011;19640;50.944;5.260;2023-10-08T14:18:24;6.80;;;3.10;;
33268;SDS011;19640;50.944;5.260;2023-10-08T14:21:09;10.02;;;3.38;;
33268;SDS011;19640;50.944;5.260;2023-10-08T14:23:36;9.07;;;3.55;;
33268;SDS011;19640;50.944;5.260;2023-10-08T14:26:08;11.98;;;3.53;;
33268;SDS011;19640;50.944;5.260;2023-10-08T14:28:35;7.60;;;3.33;;
33268;SDS011;19640;50.944;5.260;2023-10-08T14:31:06;8.20;;;3.00;;
33268;SDS011;19640;50.944;5.260;2023-10-08T14:33:33;7.55;;;3.70;;
33268;SDS011;19640;50.944;5.260;2023-10-08T14:36:08;6.45;;;4.03;;
33268;SDS011;19640;50.944;5.260;2023-10-08T14:38:52;12.95;;;3.72;;
33268;SDS011;19640;50.944;5.260;2023-10-08T14:41:36;10.75;;;3.47;;
33268;SDS011;19640;50.944;5.260;2023-10-08T14:44:21;12.60;;;3.20;;
33268;SDS011;19640;50.944;5.260;2023-10-08T14:46:48;6.22;;;3.08;;
33268;SDS011;19640;50.944;5.260;2023-10-08T14:49:17;5.63;;;3.05;;
33268;SDS011;19640;50.944;5.260;2023-10-08T14:51:44;5.93;;;3.17;;
33268;SDS011;19640;50.944;5.260;2023-10-08T14:54:14;5.72;;;3.40;;
33268;SDS011;19640;50.944;5.260;2023-10-08T14:56:40;7.57;;;3.40;;
33268;SDS011;19640;50.944;5.260;2023-10-08T14:59:06;8.27;;;3.40;;
33268;SDS011;19640;50.944;5.260;2023-10-08T15:01:31;5.20;;;3.08;;
33268;SDS011;19640;50.944;5.260;2023-10-08T15:04:00;4.28;;;3.17;;
33268;SDS011;19640;50.944;5.260;2023-10-08T15:06:30;5.70;;;3.55;;
33268;SDS011;19640;50.944;5.260;2023-10-08T15:08:56;8.95;;;3.30;;
33268;SDS011;19640;50.944;5.260;2023-10-08T15:11:23;8.10;;;3.40;;
33268;SDS011;19640;50.944;5.260;2023-10-08T15:13:50;6.93;;;3.20;;
33268;SDS011;19640;50.944;5.260;2023-10-08T15:16:20;7.60;;;3.38;;
33268;SDS011;19640;50.944;5.260;2023-10-08T15:18:51;6.20;;;3.53;;
33268;SDS011;19640;50.944;5.260;2023-10-08T15:21:18;7.72;;;3.13;;
33268;SDS011;19640;50.944;5.260;2023-10-08T15:23:44;7.05;;;3.03;;
33268;SDS011;19640;50.944;5.260;2023-10-08T15:26:11;5.28;;;3.30;;
33268;SDS011;19640;50.944;5.260;2023-10-08T15:28:37;8.27;;;3.33;;
33268;SDS011;19640;50.944;5.260;2023-10-08T15:31:10;5.78;;;3.20;;
33268;SDS011;19640;50.944;5.260;2023-10-08T15:33:36;6.35;;;3.22;;
33268;SDS011;19640;50.944;5.260;2023-10-08T15:36:04;8.18;;;3.63;;
33268;SDS011;19640;50.944;5.260;2023-10-08T15:38:30;12.68;;;3.17;;
33268;SDS011;19640;50.944;5.260;2023-10-08T15:40:56;6.07;;;3.17;;